Time;durP1;ratioP1;P1;durP2;ratioP2;P2;SDS_P1;SDS_P2;PMS_P1;PMS_P2;Temp;Humidity;BMP_temperature;BMP_pressure;BME280_temperature;BME280_humidity;BME280_pressure;Samples;Min_cycle;Max_cycle;Signal;HPM_P1;HPM_P2
2022/11/26 00:02:21;;;;;;;;;22.25;20.00;;;;;11.92;60.31;102212.22;5028405;28;45368;-38
2022/11/26 00:04:47;;;;;;;;;26.00;24.50;;;;;11.90;59.82;102216.63;5021353;28;45476;-37
2022/11/26 00:07:15;;;;;;;;;26.75;21.50;;;;;11.89;59.90;102216.59;5036530;28;45319;-37
2022/11/26 00:09:40;;;;;;;;;26.00;19.25;;;;;11.89;60.36;102220.06;5034124;28;45234;-37
2022/11/26 00:12:24;;;;;;;;;18.25;14.00;;;;;11.86;60.20;102217.47;5028248;27;52455;-37
2022/11/26 00:14:49;;;;;;;;;23.25;16.25;;;;;11.85;60.58;102221.00;5032511;28;45364;-36
2022/11/26 00:17:16;;;;;;;;;19.00;15.25;;;;;11.86;60.45;102227.09;5032338;28;45421;-37
2022/11/26 00:19:43;;;;;;;;;18.00;15.25;;;;;11.85;60.23;102225.38;5038830;28;45227;-36
2022/11/26 00:22:28;;;;;;;;;22.25;17.00;;;;;11.85;60.39;102231.50;5026465;27;45294;-37
2022/11/26 00:24:53;;;;;;;;;15.50;14.25;;;;;11.85;60.60;102235.88;5034160;28;45459;-36
2022/11/26 00:27:20;;;;;;;;;13.75;13.00;;;;;11.83;60.13;102233.25;5033588;28;45379;-37
2022/11/26 00:29:45;;;;;;;;;15.75;13.00;;;;;11.82;60.16;102238.50;5029117;28;45168;-37
2022/11/26 00:32:24;;;;;;;;;15.00;12.50;;;;;11.81;60.49;102242.00;5021205;28;67914;-38
2022/11/26 00:34:51;;;;;;;;;21.75;14.00;;;;;11.80;60.67;102235.91;5038633;28;45466;-38
2022/11/26 00:37:28;;;;;;;;;15.25;12.75;;;;;11.79;60.51;102239.38;5033345;27;46015;-38
2022/11/26 00:39:54;;;;;;;;;16.25;12.25;;;;;11.76;60.48;102235.06;5047480;28;45507;-37
2022/11/26 00:42:20;;;;;;;;;24.00;13.75;;;;;11.76;60.31;102232.44;5036127;28;45592;-37
2022/11/26 00:44:45;;;;;;;;;21.50;13.25;;;;;11.76;60.28;102235.06;5051977;28;64637;-37
2022/11/26 00:47:10;;;;;;;;;24.50;17.25;;;;;11.76;60.58;102247.31;5037988;28;52225;-38
2022/11/26 00:49:36;;;;;;;;;17.75;14.50;;;;;11.73;60.31;102240.31;5039475;28;63823;-38
2022/11/26 00:52:02;;;;;;;;;18.00;12.25;;;;;11.73;60.74;102240.31;5036985;28;53117;-38
2022/11/26 00:54:28;;;;;;;;;23.00;15.00;;;;;11.72;60.34;102241.22;5039270;28;45585;-37
2022/11/26 00:56:53;;;;;;;;;17.75;13.25;;;;;11.71;60.40;102238.59;5036386;28;68349;-38
2022/11/26 00:59:21;;;;;;;;;15.25;13.75;;;;;11.71;60.70;102242.09;5030455;28;65498;-38
2022/11/26 01:01:46;;;;;;;;;19.50;15.25;;;;;11.71;60.85;102244.69;5031585;28;45278;-36
2022/11/26 01:04:12;;;;;;;;;16.75;11.75;;;;;11.70;60.68;102244.72;5018764;28;68726;-37
2022/11/26 01:06:46;;;;;;;;;25.25;13.50;;;;;11.69;60.47;102238.59;5035087;28;50683;-37
2022/11/26 01:09:18;;;;;;;;;15.50;10.75;;;;;11.68;60.82;102243.84;5033768;28;45278;-37
2022/11/26 01:11:43;;;;;;;;;18.50;11.75;;;;;11.67;60.83;102249.97;5031519;28;45440;-37
2022/11/26 01:14:14;;;;;;;;;14.25;12.50;;;;;11.66;60.68;102251.72;5043441;28;45302;-37
2022/11/26 01:16:41;;;;;;;;;13.50;10.00;;;;;11.65;60.77;102250.00;5020005;28;45701;-36
2022/11/26 01:19:09;;;;;;;;;16.00;12.00;;;;;11.63;60.82;102249.13;5031390;28;45343;-36
2022/11/26 01:21:35;;;;;;;;;15.75;13.75;;;;;11.65;60.76;102249.13;5025179;28;45246;-36
2022/11/26 01:24:00;;;;;;;;;13.75;11.75;;;;;11.62;60.71;102247.41;5049748;28;47172;-37
2022/11/26 01:26:30;;;;;;;;;14.00;11.00;;;;;11.64;60.50;102247.41;5036660;28;66842;-37
2022/11/26 01:28:55;;;;;;;;;18.75;11.50;;;;;11.62;60.96;102244.78;5035943;28;45292;-37
2022/11/26 01:31:23;;;;;;;;;9.00;8.00;;;;;11.63;60.76;102250.88;5045038;28;70415;-36
2022/11/26 01:33:49;;;;;;;;;20.25;12.50;;;;;11.62;60.99;102250.03;5033892;28;46232;-36
2022/11/26 01:36:26;;;;;;;;;15.25;11.50;;;;;11.62;60.94;102255.25;5037537;28;45273;-41
2022/11/26 01:38:53;;;;;;;;;20.75;10.75;;;;;11.61;61.03;102253.50;5034742;28;45235;-36
2022/11/26 01:41:46;;;;;;;;;19.50;12.50;;;;;11.60;61.02;102249.16;5037590;28;45545;-36
2022/11/26 01:44:19;;;;;;;;;16.50;11.50;;;;;11.60;61.04;102254.41;5019025;27;45287;-37
2022/11/26 01:46:48;;;;;;;;;11.50;11.25;;;;;11.59;61.05;102245.66;5020635;28;45342;-36
2022/11/26 01:49:22;;;;;;;;;19.25;12.25;;;;;11.59;61.08;102244.78;5036817;28;45293;-37
2022/11/26 01:51:59;;;;;;;;;20.00;12.25;;;;;11.61;61.08;102247.41;5035754;28;45250;-37
2022/11/26 01:54:24;;;;;;;;;13.00;13.00;;;;;11.61;60.82;102242.16;5053171;28;45369;-36
2022/11/26 01:56:51;;;;;;;;;16.50;12.75;;;;;11.59;61.09;102244.78;5050457;28;70693;-36
2022/11/26 01:59:24;;;;;;;;;22.00;17.75;;;;;11.58;60.93;102248.31;5037632;27;45497;-36
2022/11/26 02:01:51;;;;;;;;;28.00;18.50;;;;;11.56;61.04;102253.56;5045415;28;45621;-36
2022/11/26 02:04:20;;;;;;;;;24.00;18.50;;;;;11.58;60.81;102254.41;5017947;28;46446;-36
2022/11/26 02:06:47;;;;;;;;;30.25;20.00;;;;;11.55;61.17;102243.94;5031675;28;45952;-36
2022/11/26 02:09:14;;;;;;;;;26.00;22.00;;;;;11.55;61.15;102258.81;5036295;27;45401;-36
2022/11/26 02:11:40;;;;;;;;;27.25;22.50;;;;;11.52;61.26;102245.72;5029671;28;45310;-36
2022/11/26 02:14:07;;;;;;;;;25.50;21.75;;;;;11.51;61.20;102242.22;5025264;28;46253;-36
2022/11/26 02:16:47;;;;;;;;;27.50;23.50;;;;;11.50;61.38;102239.63;5037024;28;45332;-36
2022/11/26 02:19:50;;;;;;;;;33.75;26.25;;;;;11.48;61.02;102242.25;5024817;28;45251;-36
2022/11/26 02:22:31;;;;;;;;;31.00;25.75;;;;;11.47;61.06;102242.25;5036446;28;45652;-36
2022/11/26 02:25:27;;;;;;;;;30.50;26.25;;;;;11.44;61.38;102245.78;5027189;28;46680;-36
2022/11/26 02:28:07;;;;;;;;;32.00;24.75;;;;;11.43;61.31;102238.78;5049236;28;46580;-36
2022/11/26 02:30:40;;;;;;;;;34.75;29.50;;;;;11.42;61.10;102230.91;5022111;28;45422;-35
2022/11/26 02:33:15;;;;;;;;;32.50;27.25;;;;;11.42;61.02;102231.81;5016440;28;45366;-35
2022/11/26 02:35:55;;;;;;;;;39.50;30.00;;;;;11.42;60.90;102223.06;5034002;27;45350;-37
2022/11/26 02:38:22;;;;;;;;;36.75;31.25;;;;;11.40;61.15;102233.53;5024825;28;45319;-35
2022/11/26 02:40:50;;;;;;;;;35.25;27.25;;;;;11.39;60.95;102231.81;5031138;28;45414;-35
2022/11/26 02:43:16;;;;;;;;;37.50;29.50;;;;;11.36;60.72;102231.84;5023737;28;45294;-35
2022/11/26 02:45:45;;;;;;;;;29.50;28.00;;;;;11.34;60.78;102236.22;5029102;28;47017;-35
2022/11/26 02:48:17;;;;;;;;;42.50;32.00;;;;;11.32;60.67;102243.22;5031551;28;45713;-35
2022/11/26 02:50:46;;;;;;;;;37.00;26.00;;;;;11.31;60.80;102251.97;5052228;28;45300;-35
2022/11/26 02:53:14;;;;;;;;;37.00;29.50;;;;;11.29;60.58;102251.09;5035954;28;45540;-35
2022/11/26 02:55:43;;;;;;;;;30.50;27.75;;;;;11.23;60.63;102245.91;5035140;28;46397;-36
2022/11/26 02:58:08;;;;;;;;;31.25;25.00;;;;;11.18;61.08;102248.53;5035521;27;46063;-36
2022/11/26 03:00:35;;;;;;;;;32.75;28.50;;;;;11.13;61.00;102242.44;5031913;28;61677;-36
2022/11/26 03:03:26;;;;;;;;;34.50;27.25;;;;;11.13;61.00;102243.31;5022000;28;45448;-36
2022/11/26 03:05:55;;;;;;;;;30.25;27.50;;;;;11.12;60.87;102246.81;5042056;28;45240;-37
2022/11/26 03:08:21;;;;;;;;;32.25;27.75;;;;;11.13;61.06;102253.78;5034127;28;45676;-37
2022/11/26 03:10:46;;;;;;;;;33.00;26.75;;;;;11.13;61.06;102250.31;5036545;28;45369;-37
2022/11/26 03:13:12;;;;;;;;;33.50;28.25;;;;;11.13;61.04;102245.06;5023474;28;71075;-37
2022/11/26 03:15:37;;;;;;;;;35.50;28.00;;;;;11.11;60.61;102249.44;5032299;28;46374;-37
2022/11/26 03:18:02;;;;;;;;;35.75;28.50;;;;;11.10;61.03;102245.06;5016521;28;73936;-37
2022/11/26 03:20:28;;;;;;;;;31.75;26.00;;;;;11.09;60.90;102244.22;5016720;28;45337;-37
2022/11/26 03:22:53;;;;;;;;;29.00;22.50;;;;;11.07;60.84;102239.88;5031673;28;61124;-37
2022/11/26 03:25:18;;;;;;;;;33.50;27.25;;;;;11.06;60.79;102241.59;5018974;28;61023;-36
2022/11/26 03:27:44;;;;;;;;;36.00;30.50;;;;;11.05;60.99;102252.97;5037595;28;45301;-37
2022/11/26 03:30:09;;;;;;;;;32.75;29.50;;;;;11.05;60.83;102246.84;5037860;28;65613;-36
2022/11/26 03:32:35;;;;;;;;;36.75;29.50;;;;;11.04;60.98;102250.34;5036617;28;45538;-36
2022/11/26 03:35:00;;;;;;;;;34.75;25.25;;;;;11.02;61.05;102245.97;5038168;28;45443;-36
2022/11/26 03:37:26;;;;;;;;;32.50;29.50;;;;;11.00;60.84;102249.50;5033654;28;45451;-36
2022/11/26 03:39:51;;;;;;;;;31.00;27.25;;;;;10.97;61.04;102250.38;5046579;28;65738;-36
2022/11/26 03:42:16;;;;;;;;;29.00;27.50;;;;;10.97;61.10;102245.13;5036754;28;45219;-36
2022/11/26 03:44:42;;;;;;;;;33.75;29.75;;;;;10.97;60.85;102242.50;5038828;28;54882;-36
2022/11/26 03:47:07;;;;;;;;;37.75;26.00;;;;;10.94;61.00;102239.94;5038064;28;66747;-36
2022/11/26 03:49:32;;;;;;;;;25.50;23.00;;;;;10.94;61.11;102250.41;5030114;28;51828;-36
2022/11/26 03:51:58;;;;;;;;;33.50;23.50;;;;;10.93;60.91;102253.03;5035863;28;63398;-37
2022/11/26 03:54:23;;;;;;;;;30.75;26.00;;;;;10.89;60.95;102246.03;5037985;28;72465;-37
2022/11/26 03:56:48;;;;;;;;;38.50;28.25;;;;;10.82;61.15;102251.31;5040920;28;45257;-37
2022/11/26 03:59:14;;;;;;;;;27.75;23.00;;;;;10.80;61.13;102247.84;5038646;27;45734;-36
2022/11/26 04:01:39;;;;;;;;;23.25;21.75;;;;;10.78;61.24;102260.06;5031670;28;68229;-36
2022/11/26 04:04:05;;;;;;;;;29.00;23.25;;;;;10.78;61.05;102260.06;5019584;28;46261;-36
2022/11/26 04:06:30;;;;;;;;;30.75;25.50;;;;;10.78;61.21;102253.94;5027737;28;61514;-36
2022/11/26 04:08:55;;;;;;;;;28.00;23.25;;;;;10.78;61.27;102254.84;5034541;28;45341;-36
2022/11/26 04:11:21;;;;;;;;;31.75;26.00;;;;;10.77;61.03;102255.69;5036039;28;72415;-36
2022/11/26 04:13:46;;;;;;;;;33.50;29.25;;;;;10.77;61.31;102257.44;5037962;28;71152;-36
2022/11/26 04:16:11;;;;;;;;;24.50;20.25;;;;;10.77;61.28;102270.53;5037564;28;70145;-37
2022/11/26 04:18:37;;;;;;;;;27.75;21.75;;;;;10.76;61.42;102277.50;5052574;28;63700;-36
2022/11/26 04:21:05;;;;;;;;;25.50;22.00;;;;;10.78;61.33;102269.66;5024921;28;66431;-36
2022/11/26 04:23:31;;;;;;;;;27.00;21.25;;;;;10.76;61.12;102260.94;5030663;28;47320;-36
2022/11/26 04:25:56;;;;;;;;;29.50;22.75;;;;;10.78;61.18;102251.31;5048325;28;45481;-37
2022/11/26 04:28:21;;;;;;;;;29.00;21.75;;;;;10.79;61.46;102250.47;5030736;28;45269;-37
2022/11/26 04:30:46;;;;;;;;;31.50;22.50;;;;;10.79;61.29;102253.94;5032927;28;70065;-36
2022/11/26 04:33:12;;;;;;;;;33.00;24.50;;;;;10.78;60.96;102243.47;5018151;28;75252;-36
2022/11/26 04:35:38;;;;;;;;;29.50;24.00;;;;;10.79;61.18;102247.84;5021767;28;45294;-37
2022/11/26 04:38:03;;;;;;;;;28.25;21.00;;;;;10.79;60.91;102253.06;5028021;28;64911;-37
2022/11/26 04:40:29;;;;;;;;;32.00;25.75;;;;;10.77;61.04;102253.06;5021686;28;57392;-36
2022/11/26 04:42:54;;;;;;;;;35.25;24.75;;;;;10.77;61.05;102253.06;5030354;28;46106;-37
2022/11/26 04:45:19;;;;;;;;;26.25;22.25;;;;;10.76;60.90;102248.69;5035958;28;70214;-36
2022/11/26 04:47:44;;;;;;;;;26.50;22.50;;;;;10.76;61.29;102255.69;5037688;28;65721;-36
2022/11/26 04:50:10;;;;;;;;;31.50;22.75;;;;;10.76;60.91;102253.06;5035213;28;65396;-36
2022/11/26 04:52:36;;;;;;;;;26.75;20.75;;;;;10.74;61.09;102258.31;5036908;28;46250;-36
2022/11/26 04:55:01;;;;;;;;;26.00;20.50;;;;;10.74;61.24;102252.22;5036372;28;45449;-36
2022/11/26 04:57:26;;;;;;;;;35.25;23.50;;;;;10.74;61.19;102252.22;5036908;28;58159;-36
2022/11/26 04:59:52;;;;;;;;;27.50;21.00;;;;;10.72;61.08;102260.06;5035198;27;64029;-36
2022/11/26 05:02:17;;;;;;;;;24.75;20.50;;;;;10.72;60.78;102267.06;5027986;28;45997;-36
2022/11/26 05:04:42;;;;;;;;;30.00;24.50;;;;;10.69;61.17;102260.06;5105952;27;58827;-36
2022/11/26 05:07:08;;;;;;;;;29.25;26.25;;;;;10.69;61.12;102272.31;5037931;28;45282;-36
2022/11/26 05:09:33;;;;;;;;;35.50;27.25;;;;;10.66;60.95;102274.91;5024985;28;64747;-36
2022/11/26 05:11:58;;;;;;;;;39.00;25.75;;;;;10.62;61.22;102272.34;5036084;28;71124;-36
2022/11/26 05:14:24;;;;;;;;;26.75;23.50;;;;;10.59;60.98;102282.81;5027870;28;60970;-36
2022/11/26 05:16:49;;;;;;;;;31.25;21.75;;;;;10.58;60.89;102277.56;5028301;28;62251;-36
2022/11/26 05:19:15;;;;;;;;;11.25;7.75;;;;;10.58;61.20;102280.19;5021050;28;65890;-36
2022/11/26 05:21:40;;;;;;;;;31.75;25.25;;;;;10.58;60.92;102277.56;5036737;28;68420;-37
2022/11/26 05:24:06;;;;;;;;;32.25;23.00;;;;;10.58;61.12;102282.81;5053142;28;45357;-36
2022/11/26 05:26:31;;;;;;;;;20.00;20.00;;;;;10.56;60.92;102290.66;5053667;28;45257;-36
2022/11/26 05:28:56;;;;;;;;;24.25;23.75;;;;;10.55;60.98;102291.56;5024790;28;45453;-36
2022/11/26 05:31:22;;;;;;;;;27.00;21.75;;;;;10.55;60.91;102294.16;5038536;28;77253;-36
2022/11/26 05:33:47;;;;;;;;;33.00;24.50;;;;;10.56;61.03;102289.78;5021249;28;66192;-36
2022/11/26 05:36:12;;;;;;;;;24.50;22.50;;;;;10.55;61.18;102298.50;5028824;27;45145;-37
2022/11/26 05:38:38;;;;;;;;;24.50;21.00;;;;;10.56;60.98;102292.41;5022530;28;72891;-36
2022/11/26 05:41:03;;;;;;;;;31.75;28.00;;;;;10.55;61.12;102291.56;5038684;28;67826;-36
2022/11/26 05:43:28;;;;;;;;;30.50;24.00;;;;;10.53;61.16;102292.41;5032929;28;56584;-36
2022/11/26 05:45:54;;;;;;;;;25.50;22.25;;;;;10.49;61.08;102291.53;5036567;28;61646;-36
2022/11/26 05:48:19;;;;;;;;;26.75;22.75;;;;;10.48;61.22;102299.38;5035435;28;58292;-36
2022/11/26 05:50:44;;;;;;;;;26.75;21.25;;;;;10.47;61.10;102303.75;5034919;28;75650;-36
2022/11/26 05:53:10;;;;;;;;;23.00;18.75;;;;;10.48;61.19;102312.47;5048057;28;61122;-36
2022/11/26 05:55:35;;;;;;;;;21.00;17.75;;;;;10.44;61.08;102309.84;5019347;28;45291;-36
2022/11/26 05:58:00;;;;;;;;;23.75;19.25;;;;;10.45;61.05;102306.38;5030603;27;50408;-36
2022/11/26 06:00:26;;;;;;;;;27.75;24.25;;;;;10.41;61.20;102306.38;5038623;28;45432;-36
2022/11/26 06:02:51;;;;;;;;;24.00;21.00;;;;;10.40;61.38;102309.88;5021796;28;45304;-37
2022/11/26 06:05:17;;;;;;;;;28.00;22.50;;;;;10.39;61.38;102308.13;5023516;28;62343;-36
2022/11/26 06:07:42;;;;;;;;;31.00;22.75;;;;;10.38;61.43;102311.63;5024647;28;45447;-37
2022/11/26 06:10:08;;;;;;;;;23.50;22.75;;;;;10.40;61.79;102320.34;5018067;28;51886;-36
2022/11/26 06:12:34;;;;;;;;;27.00;21.25;;;;;10.40;61.37;102325.59;5018935;28;45295;-37
2022/11/26 06:15:00;;;;;;;;;24.75;21.50;;;;;10.39;61.36;102329.94;5070489;27;45401;-36
2022/11/26 06:17:25;;;;;;;;;25.25;20.25;;;;;10.38;61.34;102335.19;5047108;27;45440;-36
2022/11/26 06:19:51;;;;;;;;;26.75;22.00;;;;;10.39;61.28;102345.66;5017328;28;54858;-37
2022/11/26 06:22:16;;;;;;;;;21.75;18.75;;;;;10.38;61.53;102356.97;5029634;28;45421;-37
2022/11/26 06:24:42;;;;;;;;;26.75;19.25;;;;;10.39;61.50;102357.84;5016223;28;45216;-37
2022/11/26 06:27:07;;;;;;;;;28.25;20.00;;;;;10.39;61.67;102352.63;5029827;28;45220;-36
2022/11/26 06:29:32;;;;;;;;;20.75;19.00;;;;;10.40;61.17;102341.28;5035930;28;46017;-37
2022/11/26 06:31:58;;;;;;;;;26.00;22.25;;;;;10.41;61.43;102336.06;5034793;28;45449;-36
2022/11/26 06:34:23;;;;;;;;;26.25;20.00;;;;;10.40;61.42;102323.81;5037328;28;45298;-37
2022/11/26 06:36:48;;;;;;;;;29.00;20.75;;;;;10.39;61.08;102323.81;5034919;28;45471;-37
2022/11/26 06:39:14;;;;;;;;;28.75;20.75;;;;;10.35;61.22;102329.94;5020131;28;47929;-44
2022/11/26 06:41:39;;;;;;;;;27.50;23.75;;;;;10.35;61.25;102340.41;5029240;28;64447;-37
2022/11/26 06:44:05;;;;;;;;;25.00;21.25;;;;;10.34;61.20;102350.03;5051209;28;45470;-36
2022/11/26 06:46:32;;;;;;;;;24.50;22.00;;;;;10.35;61.27;102340.41;5033841;28;54945;-36
2022/11/26 06:49:03;;;;;;;;;25.00;21.50;;;;;10.36;61.21;102343.03;5024090;28;45513;-37
2022/11/26 06:51:28;;;;;;;;;20.75;19.25;;;;;10.38;61.08;102348.28;5033766;28;45396;-36
2022/11/26 06:53:54;;;;;;;;;23.75;21.75;;;;;10.39;61.02;102356.13;5036613;28;45449;-36
2022/11/26 06:56:19;;;;;;;;;23.25;18.25;;;;;10.39;61.25;102370.94;5032188;28;45424;-44
2022/11/26 06:58:46;;;;;;;;;22.25;16.50;;;;;10.39;61.26;102377.06;5036278;27;45429;-37
2022/11/26 07:01:15;;;;;;;;;19.00;18.50;;;;;10.39;61.09;102379.69;5033977;28;45369;-37
2022/11/26 07:03:40;;;;;;;;;25.25;18.75;;;;;10.39;60.98;102376.16;5017619;28;45317;-36
2022/11/26 07:06:18;;;;;;;;;24.50;18.75;;;;;10.39;60.99;102365.69;5028662;28;64154;-36
2022/11/26 07:08:43;;;;;;;;;26.00;20.50;;;;;10.39;61.04;102365.69;5027828;28;45356;-37
2022/11/26 07:11:09;;;;;;;;;21.25;19.25;;;;;10.38;60.96;102359.59;5032867;28;45149;-36
2022/11/26 07:13:35;;;;;;;;;23.00;20.75;;;;;10.36;60.75;102355.25;5035699;28;45298;-36
2022/11/26 07:16:01;;;;;;;;;22.25;19.00;;;;;10.32;60.93;102359.59;5020943;28;45389;-36
2022/11/26 07:18:27;;;;;;;;;21.75;17.50;;;;;10.29;61.06;102366.53;5016376;28;47181;-37
2022/11/26 07:20:52;;;;;;;;;28.25;19.25;;;;;10.27;60.96;102372.66;5014054;27;45341;-36
2022/11/26 07:23:17;;;;;;;;;20.25;15.50;;;;;10.29;60.84;102374.38;5034763;28;67698;-36
2022/11/26 07:25:43;;;;;;;;;23.25;19.00;;;;;10.29;60.71;102383.13;5051491;28;48802;-37
2022/11/26 07:28:08;;;;;;;;;24.25;21.00;;;;;10.26;60.75;102381.34;5076523;27;64177;-37
2022/11/26 07:30:33;;;;;;;;;23.75;22.50;;;;;10.21;60.96;102377.00;5042517;27;46469;-37
2022/11/26 07:32:59;;;;;;;;;17.00;15.50;;;;;10.20;60.94;102383.13;5049560;28;64712;-37
2022/11/26 07:35:24;;;;;;;;;25.75;18.00;;;;;10.18;61.03;102384.84;5019393;28;45599;-37
2022/11/26 07:37:50;;;;;;;;;27.00;22.50;;;;;10.18;60.78;102388.34;5031384;28;46212;-37
2022/11/26 07:40:15;;;;;;;;;23.25;21.25;;;;;10.12;60.71;102377.00;5033486;28;45320;-37
2022/11/26 07:42:40;;;;;;;;;22.00;20.00;;;;;10.09;60.77;102375.22;5052018;28;45950;-36
2022/11/26 07:45:06;;;;;;;;;21.50;18.75;;;;;10.04;60.96;102370.00;5034243;28;59704;-37
2022/11/26 07:47:32;;;;;;;;;29.00;19.75;;;;;10.03;60.85;102368.25;5034639;28;46557;-36
2022/11/26 07:49:57;;;;;;;;;23.00;18.75;;;;;10.05;61.02;102373.50;5031798;28;63501;-36
2022/11/26 07:52:22;;;;;;;;;25.75;19.75;;;;;10.05;60.95;102357.81;5031782;28;45306;-36
2022/11/26 07:54:48;;;;;;;;;29.25;21.50;;;;;10.07;60.82;102359.56;5027216;28;55241;-36
2022/11/26 07:57:13;;;;;;;;;25.75;19.25;;;;;10.08;61.28;102356.06;5032206;27;45367;-36
2022/11/26 07:59:38;;;;;;;;;23.00;19.75;;;;;10.08;60.97;102355.19;5033353;28;45205;-36
2022/11/26 08:02:04;;;;;;;;;26.75;23.50;;;;;10.10;60.99;102355.19;5025703;28;65122;-36
2022/11/26 08:04:29;;;;;;;;;26.00;19.50;;;;;10.10;60.91;102352.59;5024848;28;67266;-37
2022/11/26 08:06:55;;;;;;;;;23.50;19.75;;;;;10.06;60.99;102357.81;5033078;28;46245;-36
2022/11/26 08:09:20;;;;;;;;;22.50;20.00;;;;;10.05;61.16;102357.81;5036129;28;45425;-36
2022/11/26 08:11:45;;;;;;;;;28.75;22.50;;;;;10.06;60.78;102370.88;5027185;28;45350;-38
2022/11/26 08:14:12;;;;;;;;;21.75;19.00;;;;;10.07;60.92;102384.81;5025627;28;45235;-36
2022/11/26 08:16:38;;;;;;;;;18.25;17.50;;;;;10.08;60.87;102383.97;5025832;27;46345;-37
2022/11/26 08:19:06;;;;;;;;;23.75;14.75;;;;;10.10;61.08;102381.34;5038436;28;45277;-37
2022/11/26 08:21:31;;;;;;;;;28.00;21.25;;;;;10.09;60.92;102388.31;5052484;28;45341;-37
2022/11/26 08:23:57;;;;;;;;;25.00;20.00;;;;;10.11;60.85;102397.06;5037344;28;45376;-36
2022/11/26 08:26:24;;;;;;;;;24.25;18.50;;;;;10.13;60.84;102395.31;5045405;28;47339;-36
2022/11/26 08:28:49;;;;;;;;;26.00;19.25;;;;;10.15;60.94;102387.47;5020985;28;45336;-36
2022/11/26 08:31:16;;;;;;;;;18.75;18.75;;;;;10.14;60.62;102388.31;5038810;28;45712;-37
2022/11/26 08:33:41;;;;;;;;;20.00;18.00;;;;;10.12;60.66;102406.63;5037295;28;45511;-37
2022/11/26 08:36:08;;;;;;;;;24.25;19.50;;;;;10.07;60.52;102403.13;5028760;28;46149;-37
2022/11/26 08:38:34;;;;;;;;;22.00;19.75;;;;;10.05;60.53;102395.28;5021815;27;45466;-38
2022/11/26 08:41:08;;;;;;;;;18.75;16.00;;;;;10.01;60.90;102395.28;5037599;28;45347;-37
2022/11/26 08:43:35;;;;;;;;;22.75;18.00;;;;;9.96;60.65;102382.19;5022979;27;45531;-37
2022/11/26 08:46:00;;;;;;;;;24.25;19.25;;;;;9.95;60.84;102377.84;5037035;28;45501;-37
2022/11/26 08:48:27;;;;;;;;;26.75;20.50;;;;;9.96;61.12;102371.72;5034559;28;59591;-37
2022/11/26 08:50:57;;;;;;;;;20.25;17.50;;;;;9.98;61.01;102379.59;5037570;28;45824;-37
2022/11/26 08:53:23;;;;;;;;;19.25;18.25;;;;;10.02;61.09;102373.47;5033358;28;45573;-37
2022/11/26 08:55:48;;;;;;;;;24.00;19.00;;;;;10.05;60.90;102387.44;5013358;28;47224;-37
2022/11/26 08:58:13;;;;;;;;;24.00;19.00;;;;;10.10;60.83;102392.69;5020705;27;70960;-36
2022/11/26 09:00:39;;;;;;;;;19.25;19.25;;;;;10.11;60.83;102389.22;5038337;28;45382;-36
2022/11/26 09:03:05;;;;;;;;;25.50;20.75;;;;;10.11;60.73;102383.97;5021048;27;46620;-37
2022/11/26 09:05:31;;;;;;;;;25.25;18.25;;;;;10.12;60.67;102397.94;5043457;28;46959;-37
2022/11/26 09:07:56;;;;;;;;;30.75;22.75;;;;;10.08;60.71;102399.66;5065262;27;45372;-37
2022/11/26 09:10:21;;;;;;;;;21.25;18.00;;;;;10.04;60.76;102404.00;5033604;28;45397;-37
2022/11/26 09:12:47;;;;;;;;;25.75;23.50;;;;;10.00;60.73;102396.16;5052373;27;45383;-37
2022/11/26 09:15:12;;;;;;;;;25.50;22.75;;;;;10.03;60.96;102390.94;5093260;27;55789;-37
2022/11/26 09:17:37;;;;;;;;;28.50;24.75;;;;;10.08;61.00;102394.44;5054237;27;45257;-37
2022/11/26 09:20:03;;;;;;;;;27.75;24.25;;;;;10.12;60.80;102406.63;5091664;27;45391;-37
2022/11/26 09:22:29;;;;;;;;;25.00;23.75;;;;;10.14;60.71;102404.03;5035154;27;46334;-36
2022/11/26 09:24:54;;;;;;;;;31.50;22.00;;;;;10.20;60.66;102404.06;5061823;27;46422;-36
2022/11/26 09:27:19;;;;;;;;;33.00;26.25;;;;;10.22;60.78;102386.59;5036313;28;51423;-36
2022/11/26 09:29:45;;;;;;;;;32.25;27.00;;;;;10.17;60.55;102388.34;5027250;28;62439;-37
2022/11/26 09:32:10;;;;;;;;;33.50;26.25;;;;;10.14;61.04;102385.72;5033054;28;65292;-37
2022/11/26 09:34:36;;;;;;;;;35.50;23.50;;;;;10.11;60.70;102380.47;5026266;28;61198;-37
2022/11/26 09:37:01;;;;;;;;;32.00;26.75;;;;;10.05;60.93;102382.19;5026192;28;45528;-37
2022/11/26 09:39:27;;;;;;;;;29.25;24.50;;;;;10.03;61.13;102390.94;5050214;28;45388;-37
2022/11/26 09:42:05;;;;;;;;;31.25;24.00;;;;;10.03;61.14;102393.53;5037739;27;45408;-37
2022/11/26 09:44:38;;;;;;;;;28.00;25.75;;;;;10.04;61.26;102390.06;5032348;28;45337;-37
2022/11/26 09:47:17;;;;;;;;;35.50;27.25;;;;;10.08;61.16;102383.97;5034395;28;45341;-37
2022/11/26 09:49:57;;;;;;;;;41.00;26.75;;;;;10.10;61.42;102390.06;5037825;28;45196;-37
2022/11/26 09:52:28;;;;;;;;;27.50;21.50;;;;;10.14;61.28;102381.34;5033794;28;45345;-37
2022/11/26 09:55:02;;;;;;;;;32.75;30.75;;;;;10.13;61.29;102386.56;5034199;28;45647;-37
2022/11/26 09:57:34;;;;;;;;;33.00;24.50;;;;;10.12;61.54;102377.84;5105103;27;45272;-37
2022/11/26 10:00:22;;;;;;;;;28.00;23.00;;;;;10.11;61.53;102380.47;5035755;27;45356;-37
2022/11/26 10:02:47;;;;;;;;;38.25;29.50;;;;;10.13;61.78;102371.78;5030604;28;45456;-37
2022/11/26 10:05:12;;;;;;;;;40.50;28.50;;;;;10.12;61.83;102369.16;5025838;28;62398;-37
2022/11/26 10:07:41;;;;;;;;;32.75;27.25;;;;;10.16;61.51;102370.88;5024726;28;55639;-37
2022/11/26 10:10:14;;;;;;;;;32.75;27.50;;;;;10.17;61.60;102377.88;5021107;28;45402;-37
2022/11/26 10:13:05;;;;;;;;;43.25;31.00;;;;;10.16;61.91;102376.13;5031104;28;45238;-37
2022/11/26 10:15:37;;;;;;;;;34.25;29.50;;;;;10.18;62.10;102369.13;5073679;27;45467;-37
2022/11/26 10:18:21;;;;;;;;;29.25;24.75;;;;;10.20;61.87;102377.88;5024363;27;45357;-37
2022/11/26 10:20:46;;;;;;;;;32.75;23.50;;;;;10.23;62.09;102383.09;5025053;27;45311;-37
2022/11/26 10:23:11;;;;;;;;;36.33;29.00;;;;;10.25;61.94;102374.41;5026989;28;45548;-37
2022/11/26 10:25:50;;;;;;;;;38.00;29.33;;;;;10.29;61.88;102377.88;5037155;28;46547;-37
2022/11/26 10:28:27;;;;;;;;;33.25;23.75;;;;;10.33;62.24;102382.28;5019074;28;45856;-37
2022/11/26 10:30:59;;;;;;;;;29.75;25.75;;;;;10.38;61.89;102372.69;5038021;28;45317;-37
2022/11/26 10:33:28;;;;;;;;;39.25;28.00;;;;;10.44;61.98;102374.44;5018554;28;45435;-37
2022/11/26 10:35:53;;;;;;;;;41.00;28.75;;;;;10.47;62.38;102360.47;5031327;28;46391;-37
2022/11/26 10:38:18;;;;;;;;;41.75;30.75;;;;;10.49;62.28;102346.50;5020453;28;61633;-36
2022/11/26 10:40:44;;;;;;;;;39.00;30.00;;;;;10.53;61.91;102345.63;5035327;28;62079;-37
2022/11/26 10:43:21;;;;;;;;;31.50;25.50;;;;;10.57;61.70;102347.38;5040241;28;51767;-37
2022/11/26 10:45:56;;;;;;;;;34.75;23.75;;;;;10.61;62.19;102346.50;5045710;28;46283;-37
2022/11/26 10:48:28;;;;;;;;;31.50;25.50;;;;;10.63;62.00;102349.13;5032062;28;45950;-37
2022/11/26 10:51:02;;;;;;;;;38.00;23.75;;;;;10.63;62.12;102349.97;5017614;28;45298;-37
2022/11/26 10:53:31;;;;;;;;;26.25;23.75;;;;;10.68;62.03;102351.72;5033482;28;45238;-36
2022/11/26 10:55:59;;;;;;;;;32.50;25.25;;;;;10.67;62.11;102353.47;5033293;27;46132;-37
2022/11/26 10:58:28;;;;;;;;;26.00;22.50;;;;;10.72;62.00;102350.84;5036310;27;45339;-37
2022/11/26 11:01:00;;;;;;;;;32.50;26.00;;;;;10.76;62.04;102349.97;5037038;28;45273;-37
2022/11/26 11:03:34;;;;;;;;;31.25;26.25;;;;;10.77;62.16;102359.56;5031595;27;45428;-37
2022/11/26 11:06:19;;;;;;;;;37.75;29.00;;;;;10.79;61.96;102358.69;5035793;28;46580;-37
2022/11/26 11:08:49;;;;;;;;;40.50;32.00;;;;;10.82;61.83;102355.22;5036809;28;45925;-37
2022/11/26 11:11:17;;;;;;;;;34.25;29.00;;;;;10.83;62.03;102352.56;5031609;28;45343;-37
2022/11/26 11:13:44;;;;;;;;;42.00;32.25;;;;;10.87;62.15;102360.41;5017649;28;45314;-37